JBU7532 KDCA-KBOS
Flight info
| Callsign | JBU7532 |
|---|---|
| Flight time | N/A |
| Altitude | 33000 |
| Route | SOOKI6 SWANN BROSS Q419 JFK ROBUC3 |
| Aircraft | A20N/M-SDE2E3FGHIRWXY/LB1 |
Departure
| Time | 2026-05-06 21:08 |
|---|---|
| Airport | Ronald Reagan Washington National Airport (KDCA) |
Arrival
| Time | N/A |
|---|---|
| Airport | Boston Logan International Airport (KBOS) |
| Time | Latitude | Longitude | Altitude | Speed | Heading |
|---|---|---|---|---|---|
| 2026-05-06 20:52 | 38.85423 | -77.04071 | 22 ft | 0 kts | 262° |
| 2026-05-06 21:01 | 38.85423 | -77.04069 | 22 ft | 1 kts | 262° |
| 2026-05-06 21:01 | 38.85425 | -77.04054 | 26 ft | 3 kts | 262° |
| 2026-05-06 21:01 | 38.85427 | -77.04022 | 26 ft | 3 kts | 276° |
| 2026-05-06 21:02 | 38.85417 | -77.03993 | 25 ft | 4 kts | 326° |
| 2026-05-06 21:02 | 38.85444 | -77.04004 | 24 ft | 6 kts | 344° |
| 2026-05-06 21:02 | 38.85450 | -77.04005 | 23 ft | 0 kts | 346° |
| 2026-05-06 21:05 | 38.85487 | -77.04016 | 23 ft | 7 kts | 348° |
| 2026-05-06 21:05 | 38.85506 | -77.04020 | 23 ft | 0 kts | 348° |
| 2026-05-06 21:05 | 38.85512 | -77.04022 | 25 ft | 6 kts | 348° |
| 2026-05-06 21:05 | 38.85608 | -77.04042 | 26 ft | 21 kts | 356° |
| 2026-05-06 21:06 | 38.85744 | -77.04121 | 27 ft | 24 kts | 320° |
| 2026-05-06 21:06 | 38.85897 | -77.04271 | 27 ft | 30 kts | 321° |
| 2026-05-06 21:06 | 38.86002 | -77.04378 | 24 ft | 2 kts | 330° |
| 2026-05-06 21:06 | 38.86057 | -77.04395 | 22 ft | 0 kts | 360° |
| 2026-05-06 21:07 | 38.86029 | -77.04398 | 24 ft | 2 kts | 10° |
| 2026-05-06 21:07 | 38.86115 | -77.04303 | 24 ft | 7 kts | 71° |
| 2026-05-06 21:07 | 38.86110 | -77.04339 | 23 ft | 9 kts | 88° |
| 2026-05-06 21:07 | 38.86019 | -77.04216 | 24 ft | 67 kts | 147° |
| 2026-05-06 21:08 | 38.85407 | -77.03639 | 22 ft | 146 kts | 142° |
| 2026-05-06 21:08 | 38.84557 | -77.02764 | 655 ft | 158 kts | 146° |
| 2026-05-06 21:08 | 38.83625 | -77.02048 | 1458 ft | 160 kts | 172° |
| 2026-05-06 21:08 | 38.82469 | -77.02215 | 2123 ft | 185 kts | 200° |
| 2026-05-06 21:09 | 38.81143 | -77.02742 | 2666 ft | 225 kts | 197° |
| 2026-05-06 21:09 | 38.79479 | -77.02893 | 3018 ft | 255 kts | 178° |
| 2026-05-06 21:09 | 38.77725 | -77.02448 | 3244 ft | 261 kts | 165° |
| 2026-05-06 21:09 | 38.76158 | -77.01150 | 3705 ft | 281 kts | 137° |
| 2026-05-06 21:10 | 38.75162 | -76.98970 | 4206 ft | 290 kts | 109° |
| 2026-05-06 21:10 | 38.74907 | -76.96474 | 4698 ft | 296 kts | 91° |
| 2026-05-06 21:10 | 38.74998 | -76.93842 | 5178 ft | 300 kts | 79° |
| 2026-05-06 21:10 | 38.75750 | -76.91438 | 5667 ft | 299 kts | 52° |
| 2026-05-06 21:11 | 38.77228 | -76.89602 | 6176 ft | 297 kts | 28° |
| 2026-05-06 21:11 | 38.78986 | -76.88285 | 6793 ft | 294 kts | 21° |
| 2026-05-06 21:11 | 38.80818 | -76.87070 | 7490 ft | 299 kts | 21° |
| 2026-05-06 21:11 | 38.82669 | -76.85788 | 8204 ft | 307 kts | 26° |
| 2026-05-06 21:12 | 38.84274 | -76.83931 | 8946 ft | 320 kts | 49° |
| 2026-05-06 21:12 | 38.85497 | -76.81479 | 9695 ft | 329 kts | 58° |
| 2026-05-06 21:12 | 38.86637 | -76.78854 | 10394 ft | 348 kts | 59° |
| 2026-05-06 21:12 | 38.87891 | -76.76087 | 11097 ft | 369 kts | 56° |
| 2026-05-06 21:13 | 38.89232 | -76.73317 | 11792 ft | 384 kts | 55° |